sensor_id;sensor_type;location;lat;lon;timestamp;temperature;humidity
4602;DHT22;2313;48.552;9.370;2022-12-07T00:01:14;3.90;99.90
4602;DHT22;2313;48.552;9.370;2022-12-07T00:03:41;3.90;99.90
4602;DHT22;2313;48.552;9.370;2022-12-07T00:06:09;3.90;99.90
4602;DHT22;2313;48.552;9.370;2022-12-07T00:08:36;3.90;99.90
4602;DHT22;2313;48.552;9.370;2022-12-07T00:13:35;3.90;99.90
4602;DHT22;2313;48.552;9.370;2022-12-07T00:16:10;3.90;99.90
4602;DHT22;2313;48.552;9.370;2022-12-07T00:18:37;3.90;99.90
4602;DHT22;2313;48.552;9.370;2022-12-07T00:21:11;3.90;99.90
4602;DHT22;2313;48.552;9.370;2022-12-07T00:23:37;3.90;99.90
4602;DHT22;2313;48.552;9.370;2022-12-07T00:26:07;3.90;99.90
4602;DHT22;2313;48.552;9.370;2022-12-07T00:28:33;3.90;99.90
4602;DHT22;2313;48.552;9.370;2022-12-07T00:31:03;3.90;99.90
4602;DHT22;2313;48.552;9.370;2022-12-07T00:33:29;3.90;99.90
4602;DHT22;2313;48.552;9.370;2022-12-07T00:35:59;3.90;99.90
4602;DHT22;2313;48.552;9.370;2022-12-07T00:38:28;4.00;99.90
4602;DHT22;2313;48.552;9.370;2022-12-07T00:41:02;3.90;99.90
4602;DHT22;2313;48.552;9.370;2022-12-07T00:43:28;3.90;99.90
4602;DHT22;2313;48.552;9.370;2022-12-07T00:45:54;3.90;99.90
4602;DHT22;2313;48.552;9.370;2022-12-07T00:48:21;3.90;99.90
4602;DHT22;2313;48.552;9.370;2022-12-07T00:50:47;3.90;99.90
4602;DHT22;2313;48.552;9.370;2022-12-07T00:53:13;3.90;99.90
4602;DHT22;2313;48.552;9.370;2022-12-07T00:55:38;3.90;99.90
4602;DHT22;2313;48.552;9.370;2022-12-07T00:58:04;3.90;99.90
4602;DHT22;2313;48.552;9.370;2022-12-07T01:00:30;3.90;99.90
4602;DHT22;2313;48.552;9.370;2022-12-07T01:02:56;3.80;99.90
4602;DHT22;2313;48.552;9.370;2022-12-07T01:05:21;3.80;99.90
4602;DHT22;2313;48.552;9.370;2022-12-07T01:07:47;3.80;99.90
4602;DHT22;2313;48.552;9.370;2022-12-07T01:10:13;3.90;99.90
4602;DHT22;2313;48.552;9.370;2022-12-07T01:12:39;3.80;99.90
4602;DHT22;2313;48.552;9.370;2022-12-07T01:15:05;3.80;99.90
4602;DHT22;2313;48.552;9.370;2022-12-07T01:17:34;3.80;99.90
4602;DHT22;2313;48.552;9.370;2022-12-07T01:20:01;3.80;99.90
4602;DHT22;2313;48.552;9.370;2022-12-07T01:22:29;3.80;99.90
4602;DHT22;2313;48.552;9.370;2022-12-07T01:24:55;3.80;99.90
4602;DHT22;2313;48.552;9.370;2022-12-07T01:27:21;3.80;99.90
4602;DHT22;2313;48.552;9.370;2022-12-07T01:29:46;3.80;99.90
4602;DHT22;2313;48.552;9.370;2022-12-07T01:32:12;3.80;99.90
4602;DHT22;2313;48.552;9.370;2022-12-07T01:34:38;3.80;99.90
4602;DHT22;2313;48.552;9.370;2022-12-07T01:37:03;3.80;99.90
4602;DHT22;2313;48.552;9.370;2022-12-07T01:39:29;3.80;99.90
4602;DHT22;2313;48.552;9.370;2022-12-07T01:41:55;3.80;99.90
4602;DHT22;2313;48.552;9.370;2022-12-07T01:44:28;3.80;99.90
4602;DHT22;2313;48.552;9.370;2022-12-07T01:47:03;3.80;99.90
4602;DHT22;2313;48.552;9.370;2022-12-07T01:49:42;3.90;99.90
4602;DHT22;2313;48.552;9.370;2022-12-07T01:52:38;3.80;99.90
4602;DHT22;2313;48.552;9.370;2022-12-07T01:55:07;3.70;99.90
4602;DHT22;2313;48.552;9.370;2022-12-07T01:57:35;3.80;99.90
4602;DHT22;2313;48.552;9.370;2022-12-07T02:00:04;3.80;99.90
4602;DHT22;2313;48.552;9.370;2022-12-07T02:02:38;3.80;99.90
4602;DHT22;2313;48.552;9.370;2022-12-07T02:05:06;3.80;99.90
4602;DHT22;2313;48.552;9.370;2022-12-07T02:07:34;3.80;99.90
4602;DHT22;2313;48.552;9.370;2022-12-07T02:10:15;3.80;99.90
4602;DHT22;2313;48.552;9.370;2022-12-07T02:12:43;3.80;99.90
4602;DHT22;2313;48.552;9.370;2022-12-07T02:15:10;3.80;99.90
4602;DHT22;2313;48.552;9.370;2022-12-07T02:22:54;3.80;99.90
4602;DHT22;2313;48.552;9.370;2022-12-07T02:25:49;3.80;99.90
4602;DHT22;2313;48.552;9.370;2022-12-07T02:31:21;3.80;99.90
4602;DHT22;2313;48.552;9.370;2022-12-07T02:34:05;3.80;99.90
4602;DHT22;2313;48.552;9.370;2022-12-07T02:36:37;3.80;99.90
4602;DHT22;2313;48.552;9.370;2022-12-07T02:39:15;3.70;99.90
4602;DHT22;2313;48.552;9.370;2022-12-07T02:41:53;3.70;99.90
4602;DHT22;2313;48.552;9.370;2022-12-07T02:44:23;3.60;99.90
4602;DHT22;2313;48.552;9.370;2022-12-07T02:47:02;3.60;99.90
4602;DHT22;2313;48.552;9.370;2022-12-07T02:49:28;3.60;99.90
4602;DHT22;2313;48.552;9.370;2022-12-07T02:51:55;3.60;99.90
4602;DHT22;2313;48.552;9.370;2022-12-07T02:54:21;3.60;99.90
4602;DHT22;2313;48.552;9.370;2022-12-07T02:56:56;3.60;99.90
4602;DHT22;2313;48.552;9.370;2022-12-07T03:12:53;3.40;99.90
4602;DHT22;2313;48.552;9.370;2022-12-07T03:15:30;3.50;99.90
4602;DHT22;2313;48.552;9.370;2022-12-07T03:17:58;3.40;99.90
4602;DHT22;2313;48.552;9.370;2022-12-07T03:20:26;3.40;99.90
4602;DHT22;2313;48.552;9.370;2022-12-07T03:22:54;3.50;99.90
4602;DHT22;2313;48.552;9.370;2022-12-07T03:25:21;3.50;99.90
4602;DHT22;2313;48.552;9.370;2022-12-07T03:28:01;3.50;99.90
4602;DHT22;2313;48.552;9.370;2022-12-07T03:30:31;3.70;99.90
4602;DHT22;2313;48.552;9.370;2022-12-07T03:33:29;3.50;99.90
4602;DHT22;2313;48.552;9.370;2022-12-07T03:35:59;3.50;99.90
4602;DHT22;2313;48.552;9.370;2022-12-07T03:38:37;3.50;99.90
4602;DHT22;2313;48.552;9.370;2022-12-07T03:41:14;3.50;99.90
4602;DHT22;2313;48.552;9.370;2022-12-07T03:43:42;3.50;99.90
4602;DHT22;2313;48.552;9.370;2022-12-07T03:49:05;3.50;99.90
4602;DHT22;2313;48.552;9.370;2022-12-07T03:54:18;3.40;99.90
4602;DHT22;2313;48.552;9.370;2022-12-07T03:56:45;3.40;99.90
4602;DHT22;2313;48.552;9.370;2022-12-07T03:59:12;3.30;99.90
4602;DHT22;2313;48.552;9.370;2022-12-07T04:01:42;3.30;99.90
4602;DHT22;2313;48.552;9.370;2022-12-07T04:04:08;3.30;99.90
4602;DHT22;2313;48.552;9.370;2022-12-07T04:06:33;3.30;99.90
4602;DHT22;2313;48.552;9.370;2022-12-07T04:08:59;3.30;99.90
4602;DHT22;2313;48.552;9.370;2022-12-07T04:11:25;3.30;99.90
4602;DHT22;2313;48.552;9.370;2022-12-07T04:13:50;3.40;99.90
4602;DHT22;2313;48.552;9.370;2022-12-07T04:16:34;3.30;99.90
4602;DHT22;2313;48.552;9.370;2022-12-07T04:19:00;3.30;99.90
4602;DHT22;2313;48.552;9.370;2022-12-07T04:21:26;3.20;99.90
4602;DHT22;2313;48.552;9.370;2022-12-07T04:23:51;3.20;99.90
4602;DHT22;2313;48.552;9.370;2022-12-07T04:26:17;3.10;99.90
4602;DHT22;2313;48.552;9.370;2022-12-07T04:28:42;3.10;99.90
4602;DHT22;2313;48.552;9.370;2022-12-07T04:31:08;3.10;99.90
4602;DHT22;2313;48.552;9.370;2022-12-07T04:33:35;3.00;99.90
4602;DHT22;2313;48.552;9.370;2022-12-07T04:36:01;2.90;99.90
4602;DHT22;2313;48.552;9.370;2022-12-07T04:38:27;2.90;99.90
4602;DHT22;2313;48.552;9.370;2022-12-07T04:40:52;2.90;99.90
4602;DHT22;2313;48.552;9.370;2022-12-07T04:43:18;2.90;99.90
4602;DHT22;2313;48.552;9.370;2022-12-07T04:45:47;2.90;99.90
4602;DHT22;2313;48.552;9.370;2022-12-07T04:48:13;2.90;99.90
4602;DHT22;2313;48.552;9.370;2022-12-07T04:50:39;3.00;99.90
4602;DHT22;2313;48.552;9.370;2022-12-07T04:53:05;3.00;99.90
4602;DHT22;2313;48.552;9.370;2022-12-07T04:55:30;2.90;99.90
4602;DHT22;2313;48.552;9.370;2022-12-07T04:57:56;2.90;99.90
4602;DHT22;2313;48.552;9.370;2022-12-07T05:00:21;2.90;99.90
4602;DHT22;2313;48.552;9.370;2022-12-07T05:02:47;2.90;99.90
4602;DHT22;2313;48.552;9.370;2022-12-07T05:05:13;2.90;99.90
4602;DHT22;2313;48.552;9.370;2022-12-07T05:07:38;2.90;99.90
4602;DHT22;2313;48.552;9.370;2022-12-07T05:10:05;2.80;99.90
4602;DHT22;2313;48.552;9.370;2022-12-07T05:12:31;2.80;99.90
4602;DHT22;2313;48.552;9.370;2022-12-07T05:14:56;2.90;99.90
4602;DHT22;2313;48.552;9.370;2022-12-07T05:17:22;2.80;99.90
4602;DHT22;2313;48.552;9.370;2022-12-07T05:19:47;2.70;99.90
4602;DHT22;2313;48.552;9.370;2022-12-07T05:22:13;2.70;99.90
4602;DHT22;2313;48.552;9.370;2022-12-07T05:24:39;2.60;99.90
4602;DHT22;2313;48.552;9.370;2022-12-07T05:27:05;2.50;99.90
4602;DHT22;2313;48.552;9.370;2022-12-07T05:29:30;2.50;99.90
4602;DHT22;2313;48.552;9.370;2022-12-07T05:31:56;2.50;99.90
4602;DHT22;2313;48.552;9.370;2022-12-07T05:34:21;2.50;99.90
4602;DHT22;2313;48.552;9.370;2022-12-07T05:36:47;2.50;99.90
4602;DHT22;2313;48.552;9.370;2022-12-07T05:39:13;2.40;99.90
4602;DHT22;2313;48.552;9.370;2022-12-07T05:41:38;2.30;99.90
4602;DHT22;2313;48.552;9.370;2022-12-07T05:44:22;2.20;99.90
4602;DHT22;2313;48.552;9.370;2022-12-07T05:46:48;2.20;99.90
4602;DHT22;2313;48.552;9.370;2022-12-07T05:49:14;2.20;99.90
4602;DHT22;2313;48.552;9.370;2022-12-07T05:51:39;2.20;99.90
4602;DHT22;2313;48.552;9.370;2022-12-07T05:54:05;2.10;99.90
4602;DHT22;2313;48.552;9.370;2022-12-07T05:56:30;2.00;99.90
4602;DHT22;2313;48.552;9.370;2022-12-07T05:58:56;2.00;99.90
4602;DHT22;2313;48.552;9.370;2022-12-07T06:01:41;2.00;99.90
4602;DHT22;2313;48.552;9.370;2022-12-07T06:04:06;2.00;99.90
4602;DHT22;2313;48.552;9.370;2022-12-07T06:06:32;2.00;99.90
4602;DHT22;2313;48.552;9.370;2022-12-07T06:08:58;2.00;99.90
4602;DHT22;2313;48.552;9.370;2022-12-07T06:11:23;2.00;99.90
4602;DHT22;2313;48.552;9.370;2022-12-07T06:14:07;1.90;99.90
4602;DHT22;2313;48.552;9.370;2022-12-07T06:16:33;1.90;99.90
4602;DHT22;2313;48.552;9.370;2022-12-07T06:18:59;1.90;99.90
4602;DHT22;2313;48.552;9.370;2022-12-07T06:21:24;1.90;99.90
4602;DHT22;2313;48.552;9.370;2022-12-07T06:23:52;2.00;99.90
4602;DHT22;2313;48.552;9.370;2022-12-07T06:26:17;2.00;99.90
4602;DHT22;2313;48.552;9.370;2022-12-07T06:28:43;2.10;99.90
4602;DHT22;2313;48.552;9.370;2022-12-07T06:31:09;2.10;99.90
4602;DHT22;2313;48.552;9.370;2022-12-07T06:33:35;2.10;99.90
4602;DHT22;2313;48.552;9.370;2022-12-07T06:36:00;2.10;99.90
4602;DHT22;2313;48.552;9.370;2022-12-07T06:38:26;2.20;99.90
4602;DHT22;2313;48.552;9.370;2022-12-07T06:40:52;2.20;99.90
4602;DHT22;2313;48.552;9.370;2022-12-07T06:43:17;2.30;99.90
4602;DHT22;2313;48.552;9.370;2022-12-07T06:45:43;2.30;99.90
4602;DHT22;2313;48.552;9.370;2022-12-07T06:48:08;2.30;99.90
4602;DHT22;2313;48.552;9.370;2022-12-07T06:50:34;2.30;99.90
4602;DHT22;2313;48.552;9.370;2022-12-07T06:53:00;2.40;99.90
4602;DHT22;2313;48.552;9.370;2022-12-07T06:55:25;2.30;99.90
4602;DHT22;2313;48.552;9.370;2022-12-07T06:57:51;2.40;99.90
4602;DHT22;2313;48.552;9.370;2022-12-07T07:00:17;2.40;99.90
4602;DHT22;2313;48.552;9.370;2022-12-07T07:02:42;2.40;99.90
4602;DHT22;2313;48.552;9.370;2022-12-07T07:05:08;2.40;99.90
4602;DHT22;2313;48.552;9.370;2022-12-07T07:07:34;2.30;99.90
4602;DHT22;2313;48.552;9.370;2022-12-07T07:10:00;2.30;99.90
4602;DHT22;2313;48.552;9.370;2022-12-07T07:12:25;2.40;99.90
4602;DHT22;2313;48.552;9.370;2022-12-07T07:14:51;2.40;99.90
4602;DHT22;2313;48.552;9.370;2022-12-07T07:17:16;2.30;99.90
4602;DHT22;2313;48.552;9.370;2022-12-07T07:19:42;2.20;99.90
4602;DHT22;2313;48.552;9.370;2022-12-07T07:22:08;2.20;99.90
4602;DHT22;2313;48.552;9.370;2022-12-07T07:24:33;2.10;99.90
4602;DHT22;2313;48.552;9.370;2022-12-07T07:26:59;2.10;99.90
4602;DHT22;2313;48.552;9.370;2022-12-07T07:29:24;2.20;99.90
4602;DHT22;2313;48.552;9.370;2022-12-07T07:31:50;2.20;99.90
4602;DHT22;2313;48.552;9.370;2022-12-07T07:34:16;2.20;99.90
4602;DHT22;2313;48.552;9.370;2022-12-07T07:36:41;2.20;99.90
4602;DHT22;2313;48.552;9.370;2022-12-07T07:39:07;2.30;99.90
4602;DHT22;2313;48.552;9.370;2022-12-07T07:41:32;2.30;99.90
4602;DHT22;2313;48.552;9.370;2022-12-07T07:43:58;2.30;99.90
4602;DHT22;2313;48.552;9.370;2022-12-07T07:46:24;2.40;99.90
4602;DHT22;2313;48.552;9.370;2022-12-07T07:48:49;2.30;99.90
4602;DHT22;2313;48.552;9.370;2022-12-07T07:51:15;2.30;99.90
4602;DHT22;2313;48.552;9.370;2022-12-07T07:53:40;2.40;99.90
4602;DHT22;2313;48.552;9.370;2022-12-07T07:56:06;2.40;99.90
4602;DHT22;2313;48.552;9.370;2022-12-07T07:58:31;2.50;99.90
4602;DHT22;2313;48.552;9.370;2022-12-07T08:01:03;2.50;99.90
4602;DHT22;2313;48.552;9.370;2022-12-07T08:03:29;2.60;99.90
4602;DHT22;2313;48.552;9.370;2022-12-07T08:05:54;2.50;99.90
4602;DHT22;2313;48.552;9.370;2022-12-07T08:08:20;2.80;99.90
4602;DHT22;2313;48.552;9.370;2022-12-07T08:10:46;2.60;99.90
4602;DHT22;2313;48.552;9.370;2022-12-07T08:13:11;2.50;99.90
4602;DHT22;2313;48.552;9.370;2022-12-07T08:15:40;2.60;99.90
4602;DHT22;2313;48.552;9.370;2022-12-07T08:18:06;2.70;99.90
4602;DHT22;2313;48.552;9.370;2022-12-07T08:20:34;2.70;99.90
4602;DHT22;2313;48.552;9.370;2022-12-07T08:23:00;2.70;99.90
4602;DHT22;2313;48.552;9.370;2022-12-07T08:25:27;2.70;99.90
4602;DHT22;2313;48.552;9.370;2022-12-07T08:27:53;2.70;99.90
4602;DHT22;2313;48.552;9.370;2022-12-07T08:30:19;2.80;99.90
4602;DHT22;2313;48.552;9.370;2022-12-07T08:32:45;2.80;99.90
4602;DHT22;2313;48.552;9.370;2022-12-07T08:35:11;2.90;99.90
4602;DHT22;2313;48.552;9.370;2022-12-07T08:37:37;2.90;99.90
4602;DHT22;2313;48.552;9.370;2022-12-07T08:40:04;3.10;99.90
4602;DHT22;2313;48.552;9.370;2022-12-07T08:42:29;3.10;99.90
4602;DHT22;2313;48.552;9.370;2022-12-07T08:45:06;3.10;99.90
4602;DHT22;2313;48.552;9.370;2022-12-07T08:47:36;3.10;99.90
4602;DHT22;2313;48.552;9.370;2022-12-07T08:50:03;3.10;99.90
4602;DHT22;2313;48.552;9.370;2022-12-07T08:52:30;3.10;99.90
4602;DHT22;2313;48.552;9.370;2022-12-07T08:54:58;3.10;99.90
4602;DHT22;2313;48.552;9.370;2022-12-07T08:57:24;3.10;99.90
4602;DHT22;2313;48.552;9.370;2022-12-07T08:59:50;3.10;99.90
4602;DHT22;2313;48.552;9.370;2022-12-07T09:02:15;3.20;99.90
4602;DHT22;2313;48.552;9.370;2022-12-07T09:04:41;3.20;99.90
4602;DHT22;2313;48.552;9.370;2022-12-07T09:07:06;3.30;99.90
4602;DHT22;2313;48.552;9.370;2022-12-07T09:31:49;4.10;99.90
4602;DHT22;2313;48.552;9.370;2022-12-07T09:34:14;4.20;99.90
4602;DHT22;2313;48.552;9.370;2022-12-07T09:36:40;4.20;99.90
4602;DHT22;2313;48.552;9.370;2022-12-07T09:39:07;4.20;99.90
4602;DHT22;2313;48.552;9.370;2022-12-07T09:41:33;4.30;99.90
4602;DHT22;2313;48.552;9.370;2022-12-07T09:44:09;4.30;99.90
4602;DHT22;2313;48.552;9.370;2022-12-07T09:46:39;4.30;99.90
4602;DHT22;2313;48.552;9.370;2022-12-07T09:49:05;4.30;99.90
4602;DHT22;2313;48.552;9.370;2022-12-07T09:51:35;4.40;99.90
4602;DHT22;2313;48.552;9.370;2022-12-07T09:54:01;4.30;99.90
4602;DHT22;2313;48.552;9.370;2022-12-07T09:56:29;4.40;99.90
4602;DHT22;2313;48.552;9.370;2022-12-07T09:58:59;4.50;99.90
4602;DHT22;2313;48.552;9.370;2022-12-07T10:01:29;4.60;99.90
4602;DHT22;2313;48.552;9.370;2022-12-07T10:06:45;4.70;99.90
4602;DHT22;2313;48.552;9.370;2022-12-07T10:09:13;4.80;99.90
4602;DHT22;2313;48.552;9.370;2022-12-07T10:12:08;4.80;99.90
4602;DHT22;2313;48.552;9.370;2022-12-07T10:14:37;4.80;99.90
4602;DHT22;2313;48.552;9.370;2022-12-07T10:17:56;4.70;99.90
4602;DHT22;2313;48.552;9.370;2022-12-07T10:20:18;4.70;99.90
4602;DHT22;2313;48.552;9.370;2022-12-07T10:23:00;4.50;99.90
4602;DHT22;2313;48.552;9.370;2022-12-07T10:25:30;4.60;99.90
4602;DHT22;2313;48.552;9.370;2022-12-07T10:28:18;4.60;99.90
4602;DHT22;2313;48.552;9.370;2022-12-07T10:31:03;4.60;99.90
4602;DHT22;2313;48.552;9.370;2022-12-07T10:33:53;4.70;99.90
4602;DHT22;2313;48.552;9.370;2022-12-07T10:36:25;4.80;99.90
4602;DHT22;2313;48.552;9.370;2022-12-07T10:39:15;4.90;99.90
4602;DHT22;2313;48.552;9.370;2022-12-07T10:41:57;4.90;99.90
4602;DHT22;2313;48.552;9.370;2022-12-07T10:44:26;4.90;99.90
4602;DHT22;2313;48.552;9.370;2022-12-07T10:52:32;5.10;99.90
4602;DHT22;2313;48.552;9.370;2022-12-07T10:58:04;5.20;99.90
4602;DHT22;2313;48.552;9.370;2022-12-07T11:00:45;5.20;99.90
4602;DHT22;2313;48.552;9.370;2022-12-07T11:06:13;5.20;99.90
4602;DHT22;2313;48.552;9.370;2022-12-07T11:08:59;5.20;99.90
4602;DHT22;2313;48.552;9.370;2022-12-07T11:22:25;5.20;99.90
4602;DHT22;2313;48.552;9.370;2022-12-07T11:27:32;5.30;99.90
4602;DHT22;2313;48.552;9.370;2022-12-07T11:30:16;5.30;99.90
4602;DHT22;2313;48.552;9.370;2022-12-07T11:35:50;5.30;99.90
4602;DHT22;2313;48.552;9.370;2022-12-07T11:38:22;5.30;99.90
4602;DHT22;2313;48.552;9.370;2022-12-07T11:40:50;5.30;99.90
4602;DHT22;2313;48.552;9.370;2022-12-07T11:43:32;5.40;99.90
4602;DHT22;2313;48.552;9.370;2022-12-07T11:46:12;5.40;99.90
4602;DHT22;2313;48.552;9.370;2022-12-07T11:48:54;5.50;99.90
4602;DHT22;2313;48.552;9.370;2022-12-07T11:51:21;5.60;99.90
4602;DHT22;2313;48.552;9.370;2022-12-07T11:53:55;5.60;99.90
4602;DHT22;2313;48.552;9.370;2022-12-07T11:56:26;5.70;99.90
4602;DHT22;2313;48.552;9.370;2022-12-07T12:01:42;5.60;99.90
4602;DHT22;2313;48.552;9.370;2022-12-07T12:07:06;5.70;99.90
4602;DHT22;2313;48.552;9.370;2022-12-07T12:09:59;5.60;99.90
4602;DHT22;2313;48.552;9.370;2022-12-07T12:15:27;5.70;99.90
4602;DHT22;2313;48.552;9.370;2022-12-07T12:20:45;5.70;99.90
4602;DHT22;2313;48.552;9.370;2022-12-07T12:23:12;5.80;99.90
4602;DHT22;2313;48.552;9.370;2022-12-07T12:25:45;5.80;99.90
4602;DHT22;2313;48.552;9.370;2022-12-07T12:31:16;5.90;99.90
4602;DHT22;2313;48.552;9.370;2022-12-07T12:33:56;5.90;99.90
4602;DHT22;2313;48.552;9.370;2022-12-07T12:39:10;5.80;99.90
4602;DHT22;2313;48.552;9.370;2022-12-07T12:49:43;5.80;99.90
4602;DHT22;2313;48.552;9.370;2022-12-07T12:57:35;5.80;99.90
4602;DHT22;2313;48.552;9.370;2022-12-07T13:00:24;5.80;99.90
4602;DHT22;2313;48.552;9.370;2022-12-07T13:02:51;5.80;99.90
4602;DHT22;2313;48.552;9.370;2022-12-07T13:05:26;5.70;99.90
4602;DHT22;2313;48.552;9.370;2022-12-07T13:08:17;5.70;99.90
4602;DHT22;2313;48.552;9.370;2022-12-07T13:10:47;5.60;99.90
4602;DHT22;2313;48.552;9.370;2022-12-07T13:28:48;5.50;99.90
4602;DHT22;2313;48.552;9.370;2022-12-07T13:33:58;5.50;99.90
4602;DHT22;2313;48.552;9.370;2022-12-07T13:36:32;5.60;99.90
4602;DHT22;2313;48.552;9.370;2022-12-07T13:41:42;5.60;99.90
4602;DHT22;2313;48.552;9.370;2022-12-07T13:44:14;5.50;99.90
4602;DHT22;2313;48.552;9.370;2022-12-07T13:46:52;5.40;99.90
4602;DHT22;2313;48.552;9.370;2022-12-07T13:49:25;5.50;99.90
4602;DHT22;2313;48.552;9.370;2022-12-07T13:51:51;5.50;99.90
4602;DHT22;2313;48.552;9.370;2022-12-07T13:54:18;5.50;99.90
4602;DHT22;2313;48.552;9.370;2022-12-07T13:56:48;5.50;99.90
4602;DHT22;2313;48.552;9.370;2022-12-07T13:59:23;5.50;99.90
4602;DHT22;2313;48.552;9.370;2022-12-07T14:01:51;5.50;99.90
4602;DHT22;2313;48.552;9.370;2022-12-07T14:04:33;5.40;99.90
4602;DHT22;2313;48.552;9.370;2022-12-07T14:07:01;5.40;99.90
4602;DHT22;2313;48.552;9.370;2022-12-07T14:09:28;5.40;99.90
4602;DHT22;2313;48.552;9.370;2022-12-07T14:11:55;5.40;99.90
4602;DHT22;2313;48.552;9.370;2022-12-07T14:14:31;5.40;99.90
4602;DHT22;2313;48.552;9.370;2022-12-07T14:19:42;5.30;99.90
4602;DHT22;2313;48.552;9.370;2022-12-07T14:22:15;5.30;99.90
4602;DHT22;2313;48.552;9.370;2022-12-07T14:24:43;5.30;99.90
4602;DHT22;2313;48.552;9.370;2022-12-07T14:27:20;5.40;99.90
4602;DHT22;2313;48.552;9.370;2022-12-07T14:29:46;5.30;99.90
4602;DHT22;2313;48.552;9.370;2022-12-07T14:32:19;5.30;99.90
4602;DHT22;2313;48.552;9.370;2022-12-07T14:35:17;5.30;99.90
4602;DHT22;2313;48.552;9.370;2022-12-07T14:37:45;5.20;99.90
4602;DHT22;2313;48.552;9.370;2022-12-07T14:40:20;5.20;99.90
4602;DHT22;2313;48.552;9.370;2022-12-07T14:42:48;5.20;99.90
4602;DHT22;2313;48.552;9.370;2022-12-07T14:45:22;5.20;99.90
4602;DHT22;2313;48.552;9.370;2022-12-07T14:47:48;5.30;99.90
4602;DHT22;2313;48.552;9.370;2022-12-07T14:50:17;5.10;99.90
4602;DHT22;2313;48.552;9.370;2022-12-07T14:52:48;5.10;99.90
4602;DHT22;2313;48.552;9.370;2022-12-07T14:55:26;5.10;99.90
4602;DHT22;2313;48.552;9.370;2022-12-07T14:57:53;5.10;99.90
4602;DHT22;2313;48.552;9.370;2022-12-07T15:00:21;5.10;99.90
4602;DHT22;2313;48.552;9.370;2022-12-07T15:02:48;5.00;99.90
4602;DHT22;2313;48.552;9.370;2022-12-07T15:05:14;5.20;99.90
4602;DHT22;2313;48.552;9.370;2022-12-07T15:07:40;5.00;99.90
4602;DHT22;2313;48.552;9.370;2022-12-07T15:10:09;5.00;99.90
4602;DHT22;2313;48.552;9.370;2022-12-07T15:12:39;5.00;99.90
4602;DHT22;2313;48.552;9.370;2022-12-07T15:15:05;4.90;99.90
4602;DHT22;2313;48.552;9.370;2022-12-07T15:17:30;4.90;99.90
4602;DHT22;2313;48.552;9.370;2022-12-07T15:19:56;4.90;99.90
4602;DHT22;2313;48.552;9.370;2022-12-07T15:22:22;4.80;99.90
4602;DHT22;2313;48.552;9.370;2022-12-07T15:24:47;4.90;99.90
4602;DHT22;2313;48.552;9.370;2022-12-07T15:27:13;4.80;99.90
4602;DHT22;2313;48.552;9.370;2022-12-07T15:29:38;4.80;99.90
4602;DHT22;2313;48.552;9.370;2022-12-07T15:32:04;4.80;99.90
4602;DHT22;2313;48.552;9.370;2022-12-07T15:34:30;4.80;99.90
4602;DHT22;2313;48.552;9.370;2022-12-07T15:36:57;4.80;99.90
4602;DHT22;2313;48.552;9.370;2022-12-07T15:39:22;4.70;99.90
4602;DHT22;2313;48.552;9.370;2022-12-07T15:41:48;4.70;99.90
4602;DHT22;2313;48.552;9.370;2022-12-07T15:44:14;4.70;99.90
4602;DHT22;2313;48.552;9.370;2022-12-07T15:46:59;4.70;99.90
4602;DHT22;2313;48.552;9.370;2022-12-07T15:49:25;4.70;99.90
4602;DHT22;2313;48.552;9.370;2022-12-07T15:51:51;4.70;99.90
4602;DHT22;2313;48.552;9.370;2022-12-07T15:54:22;4.70;99.90
4602;DHT22;2313;48.552;9.370;2022-12-07T15:56:48;4.70;99.90
4602;DHT22;2313;48.552;9.370;2022-12-07T15:59:14;4.60;99.90
4602;DHT22;2313;48.552;9.370;2022-12-07T16:01:40;4.60;99.90
4602;DHT22;2313;48.552;9.370;2022-12-07T16:04:06;4.50;99.90
4602;DHT22;2313;48.552;9.370;2022-12-07T16:06:31;4.50;99.90
4602;DHT22;2313;48.552;9.370;2022-12-07T16:08:57;4.70;99.90
4602;DHT22;2313;48.552;9.370;2022-12-07T16:11:23;4.50;99.90
4602;DHT22;2313;48.552;9.370;2022-12-07T16:13:49;4.40;99.90
4602;DHT22;2313;48.552;9.370;2022-12-07T16:16:16;4.40;99.90
4602;DHT22;2313;48.552;9.370;2022-12-07T16:18:43;4.40;99.90
4602;DHT22;2313;48.552;9.370;2022-12-07T16:21:09;4.40;99.90
4602;DHT22;2313;48.552;9.370;2022-12-07T16:23:35;4.40;99.90
4602;DHT22;2313;48.552;9.370;2022-12-07T16:26:10;4.40;99.90
4602;DHT22;2313;48.552;9.370;2022-12-07T16:28:37;4.30;99.90
4602;DHT22;2313;48.552;9.370;2022-12-07T16:31:07;4.30;99.90
4602;DHT22;2313;48.552;9.370;2022-12-07T16:33:38;4.30;99.90
4602;DHT22;2313;48.552;9.370;2022-12-07T16:36:05;4.30;99.90
4602;DHT22;2313;48.552;9.370;2022-12-07T16:38:31;4.30;99.90
4602;DHT22;2313;48.552;9.370;2022-12-07T16:40:57;4.30;99.90
4602;DHT22;2313;48.552;9.370;2022-12-07T16:43:22;4.30;99.90
4602;DHT22;2313;48.552;9.370;2022-12-07T16:45:48;4.30;99.90
4602;DHT22;2313;48.552;9.370;2022-12-07T16:48:14;4.30;99.90
4602;DHT22;2313;48.552;9.370;2022-12-07T16:50:41;4.30;99.90
4602;DHT22;2313;48.552;9.370;2022-12-07T16:53:08;4.40;99.90
4602;DHT22;2313;48.552;9.370;2022-12-07T16:55:41;4.30;99.90
4602;DHT22;2313;48.552;9.370;2022-12-07T16:58:07;4.40;99.90
4602;DHT22;2313;48.552;9.370;2022-12-07T17:00:33;4.30;99.90
4602;DHT22;2313;48.552;9.370;2022-12-07T17:02:59;4.30;99.90
4602;DHT22;2313;48.552;9.370;2022-12-07T17:05:25;4.30;99.90
4602;DHT22;2313;48.552;9.370;2022-12-07T17:07:53;4.30;99.90
4602;DHT22;2313;48.552;9.370;2022-12-07T17:10:19;4.30;99.90
4602;DHT22;2313;48.552;9.370;2022-12-07T17:12:45;4.30;99.90
4602;DHT22;2313;48.552;9.370;2022-12-07T17:15:11;4.30;99.90
4602;DHT22;2313;48.552;9.370;2022-12-07T17:17:54;4.30;99.90
4602;DHT22;2313;48.552;9.370;2022-12-07T17:20:21;4.30;99.90
4602;DHT22;2313;48.552;9.370;2022-12-07T17:22:48;4.20;99.90
4602;DHT22;2313;48.552;9.370;2022-12-07T17:25:14;4.20;99.90
4602;DHT22;2313;48.552;9.370;2022-12-07T17:27:40;4.20;99.90
4602;DHT22;2313;48.552;9.370;2022-12-07T17:30:07;4.20;99.90
4602;DHT22;2313;48.552;9.370;2022-12-07T17:32:33;4.20;99.90
4602;DHT22;2313;48.552;9.370;2022-12-07T17:34:58;4.20;99.90
4602;DHT22;2313;48.552;9.370;2022-12-07T17:37:25;4.20;99.90
4602;DHT22;2313;48.552;9.370;2022-12-07T17:39:52;4.20;99.90
4602;DHT22;2313;48.552;9.370;2022-12-07T17:42:18;4.10;99.90
4602;DHT22;2313;48.552;9.370;2022-12-07T17:45:09;4.10;99.90
4602;DHT22;2313;48.552;9.370;2022-12-07T17:47:36;4.00;99.90
4602;DHT22;2313;48.552;9.370;2022-12-07T17:50:04;4.00;99.90
4602;DHT22;2313;48.552;9.370;2022-12-07T17:52:29;4.00;99.90
4602;DHT22;2313;48.552;9.370;2022-12-07T17:55:14;4.00;99.90
4602;DHT22;2313;48.552;9.370;2022-12-07T17:57:39;4.00;99.90
4602;DHT22;2313;48.552;9.370;2022-12-07T18:00:07;3.90;99.90
4602;DHT22;2313;48.552;9.370;2022-12-07T18:02:33;3.90;99.90
4602;DHT22;2313;48.552;9.370;2022-12-07T18:04:59;3.80;99.90
4602;DHT22;2313;48.552;9.370;2022-12-07T18:07:24;3.90;99.90
4602;DHT22;2313;48.552;9.370;2022-12-07T18:09:50;3.80;99.90
4602;DHT22;2313;48.552;9.370;2022-12-07T18:12:15;3.90;99.90
4602;DHT22;2313;48.552;9.370;2022-12-07T18:14:41;3.80;99.90
4602;DHT22;2313;48.552;9.370;2022-12-07T18:17:07;3.80;99.90
4602;DHT22;2313;48.552;9.370;2022-12-07T18:19:32;3.70;99.90
4602;DHT22;2313;48.552;9.370;2022-12-07T18:22:04;3.80;99.90
4602;DHT22;2313;48.552;9.370;2022-12-07T18:24:29;3.80;99.90
4602;DHT22;2313;48.552;9.370;2022-12-07T18:26:55;3.80;99.90
4602;DHT22;2313;48.552;9.370;2022-12-07T18:29:20;3.80;99.90
4602;DHT22;2313;48.552;9.370;2022-12-07T18:31:46;3.80;99.90
4602;DHT22;2313;48.552;9.370;2022-12-07T18:34:14;3.90;99.90
4602;DHT22;2313;48.552;9.370;2022-12-07T18:36:42;3.80;99.90
4602;DHT22;2313;48.552;9.370;2022-12-07T18:39:11;3.70;99.90
4602;DHT22;2313;48.552;9.370;2022-12-07T18:41:38;3.70;99.90
4602;DHT22;2313;48.552;9.370;2022-12-07T18:44:04;3.70;99.90
4602;DHT22;2313;48.552;9.370;2022-12-07T18:46:31;3.60;99.90